Time;durP1;ratioP1;P1;durP2;ratioP2;P2;SDS_P1;SDS_P2;PMS_P1;PMS_P2;Temp;Humidity;BMP_temperature;BMP_pressure;BME280_temperature;BME280_humidity;BME280_pressure;Samples;Min_cycle;Max_cycle;Signal;HPM_P1;HPM_P2
2023/03/07 00:02:13;;;;;;;3.30;2.10;;;;;;;6.01;100.00;99859.66;5223830;28;20025;-80
2023/03/07 00:04:45;;;;;;;3.10;2.47;;;;;;;6.09;100.00;99852.06;5223575;28;20033;-77
2023/03/07 00:07:17;;;;;;;2.60;2.10;;;;;;;5.99;100.00;99848.56;5218468;28;20038;-78
2023/03/07 00:09:48;;;;;;;3.25;1.80;;;;;;;5.83;100.00;99848.97;5223652;28;20032;-77
2023/03/07 00:12:21;;;;;;;3.30;1.80;;;;;;;5.86;100.00;99848.69;5224508;28;20025;-77
2023/03/07 00:14:54;;;;;;;3.00;1.50;;;;;;;5.90;100.00;99844.06;5220259;28;20034;-77
2023/03/07 00:17:25;;;;;;;;;;;;;;;6.31;100.00;99842.50;5225254;28;20121;-76
2023/03/07 00:19:56;;;;;;;2.33;1.37;;;;;;;5.87;100.00;99849.50;5218684;28;20449;-76
2023/03/07 00:22:28;;;;;;;2.65;1.40;;;;;;;5.74;100.00;99835.88;5221249;28;20292;-76
2023/03/07 00:25:00;;;;;;;3.70;1.33;;;;;;;5.61;100.00;99843.84;5223915;28;20370;-76
2023/03/07 00:27:32;;;;;;;2.17;1.40;;;;;;;5.58;100.00;99833.69;5223951;28;20386;-76
2023/03/07 00:30:04;;;;;;;1.92;0.90;;;;;;;5.64;100.00;99843.56;5222312;28;20025;-76
2023/03/07 00:32:35;;;;;;;1.75;1.02;;;;;;;5.53;100.00;99821.06;5241405;28;20033;-76
2023/03/07 00:35:07;;;;;;;2.40;1.38;;;;;;;5.61;100.00;99831.69;5220655;28;20026;-76
2023/03/07 00:37:38;;;;;;;2.45;1.17;;;;;;;5.48;100.00;99825.78;5224771;28;20037;-76
2023/03/07 00:40:10;;;;;;;2.20;1.00;;;;;;;5.49;100.00;99816.22;5225535;28;20112;-76
2023/03/07 00:42:41;;;;;;;1.90;1.38;;;;;;;5.58;100.00;99825.91;5222780;28;20056;-76
2023/03/07 00:45:13;;;;;;;2.17;1.30;;;;;;;5.55;100.00;99824.34;5225107;28;20052;-76
2023/03/07 00:47:44;;;;;;;2.08;0.90;;;;;;;5.56;100.00;99817.38;5220217;28;20041;-76
2023/03/07 00:50:15;;;;;;;2.10;1.10;;;;;;;5.54;100.00;99816.69;5220703;28;20164;-76
2023/03/07 00:52:47;;;;;;;1.83;1.02;;;;;;;5.59;100.00;99814.53;5226021;28;20026;-76
2023/03/07 00:55:19;;;;;;;2.72;1.40;;;;;;;5.64;100.00;99815.00;5244107;28;20150;-76
2023/03/07 00:57:50;;;;;;;2.28;1.23;;;;;;;5.64;100.00;99812.41;5231873;28;20037;-76
2023/03/07 01:00:22;;;;;;;2.42;1.67;;;;;;;5.65;100.00;99803.66;5227857;28;20034;-76
2023/03/07 01:02:56;;;;;;;2.10;1.20;;;;;;;5.62;100.00;99814.31;5233210;28;20163;-76
2023/03/07 01:05:27;;;;;;;2.45;1.70;;;;;;;5.56;100.00;99814.78;5225082;28;20022;-76
2023/03/07 01:07:59;;;;;;;2.15;1.73;;;;;;;5.81;100.00;99804.06;5226192;28;20091;-76
2023/03/07 01:10:32;;;;;;;2.17;1.60;;;;;;;5.83;100.00;99803.94;5227963;28;20029;-76
2023/03/07 01:13:04;;;;;;;2.45;1.80;;;;;;;5.78;100.00;99801.72;5222130;28;20029;-76
2023/03/07 01:15:36;;;;;;;2.40;1.63;;;;;;;5.79;100.00;99802.53;5227914;28;20049;-76
2023/03/07 01:18:09;;;;;;;2.55;1.92;;;;;;;5.78;100.00;99793.09;5228250;28;20036;-76
2023/03/07 01:20:40;;;;;;;2.70;2.20;;;;;;;5.85;100.00;99797.66;5239677;28;20256;-76
2023/03/07 01:23:12;;;;;;;2.50;2.15;;;;;;;5.78;100.00;99782.69;5222903;28;20022;-76
2023/03/07 01:25:43;;;;;;;2.97;2.30;;;;;;;5.87;100.00;99800.13;5225780;28;20025;-76
2023/03/07 01:28:14;;;;;;;3.03;2.33;;;;;;;5.80;100.00;99792.03;5227528;28;20032;-76
2023/03/07 01:30:55;;;;;;;3.08;2.75;;;;;;;6.02;100.00;99787.69;5221547;28;20037;-76
2023/03/07 01:33:27;;;;;;;2.78;2.47;;;;;;;5.91;100.00;99778.16;5228245;28;20117;-76
2023/03/07 01:35:58;;;;;;;3.63;2.40;;;;;;;5.95;100.00;99781.38;5226231;28;20121;-76
2023/03/07 01:38:32;;;;;;;3.40;2.60;;;;;;;5.85;100.00;99774.28;5223544;28;20044;-76
2023/03/07 01:41:04;;;;;;;3.80;3.22;;;;;;;5.90;100.00;99773.88;5229949;28;20033;-77
2023/03/07 01:43:36;;;;;;;3.35;3.00;;;;;;;5.98;100.00;99773.28;5228882;28;20053;-76
2023/03/07 01:46:16;;;;;;;5.68;2.90;;;;;;;6.12;100.00;99775.56;5225536;28;20057;-76
2023/03/07 01:48:52;;;;;;;3.78;3.22;;;;;;;5.96;100.00;99770.81;5239962;28;20034;-76
2023/03/07 01:51:24;;;;;;;4.20;3.58;;;;;;;5.95;100.00;99771.78;5223954;28;20025;-76
2023/03/07 01:53:57;;;;;;;3.72;3.00;;;;;;;5.86;100.00;99764.69;5225855;28;20328;-77
2023/03/07 01:56:29;;;;;;;3.72;3.40;;;;;;;5.91;100.00;99770.34;5225469;28;20069;-76
2023/03/07 01:59:01;;;;;;;5.03;4.05;;;;;;;5.94;100.00;99766.69;5226900;28;20430;-76
2023/03/07 02:01:33;;;;;;;4.30;3.90;;;;;;;5.76;100.00;99769.84;5226356;28;20075;-76
2023/03/07 02:04:14;;;;;;;4.47;3.80;;;;;;;6.08;100.00;99754.19;5229660;28;20033;-76
2023/03/07 02:06:46;;;;;;;4.30;3.90;;;;;;;5.88;100.00;99749.00;5222386;28;20045;-76
2023/03/07 02:09:20;;;;;;;4.22;3.65;;;;;;;6.01;100.00;99755.66;5228553;28;20026;-76
2023/03/07 02:11:52;;;;;;;4.20;3.80;;;;;;;5.84;100.00;99761.41;5227894;28;20022;-76
2023/03/07 02:14:23;;;;;;;4.82;4.10;;;;;;;5.79;100.00;99745.34;5225167;28;20036;-76
2023/03/07 02:16:54;;;;;;;4.13;3.65;;;;;;;5.80;100.00;99747.03;5224771;28;20483;-76
2023/03/07 02:19:56;;;;;;;4.43;3.55;;;;;;;6.00;100.00;99746.22;5222381;28;20422;-76
2023/03/07 02:22:28;;;;;;;5.00;3.70;;;;;;;5.86;100.00;99751.69;5190659;28;20072;-76
2023/03/07 02:25:11;;;;;;;4.28;3.33;;;;;;;5.93;100.00;99742.47;5226140;28;20470;-76
2023/03/07 02:27:43;;;;;;;4.97;4.07;;;;;;;5.86;100.00;99736.94;5228581;28;20044;-76
2023/03/07 02:30:15;;;;;;;4.47;3.50;;;;;;;5.86;100.00;99744.72;5223085;28;20281;-76
2023/03/07 02:32:46;;;;;;;3.38;2.97;;;;;;;5.77;100.00;99735.09;5224440;28;20032;-76
2023/03/07 02:35:22;;;;;;;3.70;3.28;;;;;;;5.89;100.00;99745.44;5222224;28;20104;-76
2023/03/07 02:38:00;;;;;;;5.10;2.97;;;;;;;5.90;100.00;99731.47;5226857;28;20356;-76
2023/03/07 02:40:31;;;;;;;4.30;3.10;;;;;;;5.76;100.00;99711.84;5225718;28;20446;-76
2023/03/07 02:43:08;;;;;;;3.67;2.90;;;;;;;5.74;100.00;99717.16;5228440;28;20116;-77
2023/03/07 02:45:39;;;;;;;4.57;3.30;;;;;;;5.78;100.00;99718.53;5226229;28;20731;-76
2023/03/07 02:48:10;;;;;;;4.32;2.95;;;;;;;5.69;100.00;99708.94;5220683;28;21133;-76
2023/03/07 02:50:42;;;;;;;4.88;3.08;;;;;;;5.91;100.00;99722.72;5223246;28;20037;-76
2023/03/07 02:53:13;;;;;;;5.32;3.63;;;;;;;5.81;100.00;99720.06;5219958;28;20102;-76
2023/03/07 02:55:44;;;;;;;4.95;3.30;;;;;;;5.78;100.00;99721.16;5226890;28;20021;-76
2023/03/07 02:58:16;;;;;;;5.03;3.53;;;;;;;5.83;100.00;99720.75;5223934;28;20057;-76
2023/03/07 03:00:47;;;;;;;4.35;3.17;;;;;;;5.83;100.00;99707.75;5220809;28;20037;-76
2023/03/07 03:03:18;;;;;;;3.83;3.20;;;;;;;5.91;100.00;99717.53;5243100;28;20470;-76
2023/03/07 03:05:50;;;;;;;3.67;2.90;;;;;;;5.83;100.00;99715.56;5227307;28;20482;-77
2023/03/07 03:08:21;;;;;;;5.47;3.17;;;;;;;5.70;100.00;99705.38;5242356;28;20482;-77
2023/03/07 03:10:53;;;;;;;3.63;2.92;;;;;;;5.79;100.00;99719.38;5225291;28;20029;-77
2023/03/07 03:13:25;;;;;;;3.40;3.00;;;;;;;5.75;100.00;99715.38;5232803;28;20037;-77
2023/03/07 03:15:56;;;;;;;4.45;3.10;;;;;;;5.79;100.00;99709.78;5253953;28;20477;-77
2023/03/07 03:18:28;;;;;;;5.57;3.67;;;;;;;5.83;100.00;99720.75;5227571;28;20065;-77
2023/03/07 03:21:06;;;;;;;4.63;3.33;;;;;;;5.91;100.00;99713.16;5220633;28;20033;-77
2023/03/07 03:23:37;;;;;;;3.95;3.20;;;;;;;5.73;100.00;99709.50;5225843;28;20132;-77
2023/03/07 03:26:10;;;;;;;4.10;3.53;;;;;;;5.71;100.00;99704.41;5226481;28;20033;-76
2023/03/07 03:28:41;;;;;;;5.70;3.65;;;;;;;5.69;100.00;99701.13;5224551;28;20036;-76
2023/03/07 03:31:14;;;;;;;5.60;4.00;;;;;;;5.67;100.00;99707.41;5224602;28;20034;-77
2023/03/07 03:33:45;;;;;;;4.88;3.30;;;;;;;5.70;100.00;99701.94;5223744;28;20049;-76
2023/03/07 03:36:18;;;;;;;4.63;3.60;;;;;;;5.67;100.00;99705.63;5222668;28;20092;-77
2023/03/07 03:38:51;;;;;;;4.17;3.50;;;;;;;5.74;100.00;99703.34;5221038;28;20403;-76
2023/03/07 03:41:23;;;;;;;4.38;3.63;;;;;;;5.65;100.00;99702.34;5226658;28;20032;-77
2023/03/07 03:43:56;;;;;;;5.38;3.80;;;;;;;5.64;100.00;99705.03;5224514;28;20029;-77
2023/03/07 03:46:27;;;;;;;5.07;3.60;;;;;;;5.66;100.00;99696.19;5219086;28;20521;-77
2023/03/07 03:48:58;;;;;;;4.65;3.72;;;;;;;5.61;100.00;99672.38;5220872;28;20109;-77
2023/03/07 03:51:31;;;;;;;4.82;3.80;;;;;;;5.70;100.00;99689.78;5224391;28;20030;-76
2023/03/07 03:54:02;;;;;;;4.63;3.47;;;;;;;5.67;100.00;99687.44;5225292;28;20033;-77
2023/03/07 03:56:33;;;;;;;5.00;3.55;;;;;;;5.73;100.00;99681.72;5225661;28;20033;-77
2023/03/07 03:59:04;;;;;;;4.72;3.80;;;;;;;5.73;100.00;99676.53;5226638;28;20531;-77
2023/03/07 04:01:36;;;;;;;3.88;3.38;;;;;;;5.76;100.00;99671.09;5226694;28;20033;-77
2023/03/07 04:04:07;;;;;;;4.00;3.60;;;;;;;5.74;100.00;99670.38;5223912;28;20057;-77
2023/03/07 04:06:38;;;;;;;3.63;3.00;;;;;;;5.70;100.00;99662.97;5226242;28;20033;-77
2023/03/07 04:09:10;;;;;;;3.65;3.28;;;;;;;5.68;100.00;99650.09;5222359;28;20030;-77
2023/03/07 04:11:41;;;;;;;3.75;3.30;;;;;;;5.70;100.00;99649.97;5218700;28;20034;-77
2023/03/07 04:14:12;;;;;;;4.30;3.33;;;;;;;5.73;100.00;99654.94;5223896;28;20033;-76
2023/03/07 04:16:43;;;;;;;4.18;3.13;;;;;;;5.73;100.00;99644.53;5221776;28;20037;-76
2023/03/07 04:19:15;;;;;;;3.13;2.83;;;;;;;5.72;100.00;99641.13;5220250;28;20300;-77
2023/03/07 04:21:46;;;;;;;4.18;3.28;;;;;;;5.67;100.00;99630.25;5222576;28;20069;-76
2023/03/07 04:24:17;;;;;;;5.13;2.85;;;;;;;5.81;100.00;99642.09;5219915;28;20136;-77
2023/03/07 04:26:49;;;;;;;4.05;2.90;;;;;;;5.66;100.00;99638.19;5226809;28;20438;-77
2023/03/07 04:29:20;;;;;;;3.65;3.00;;;;;;;5.67;100.00;99640.66;5227026;28;20386;-77
2023/03/07 04:31:51;;;;;;;3.75;3.35;;;;;;;5.59;100.00;99633.50;5225320;28;20033;-77
2023/03/07 04:34:22;;;;;;;4.07;2.80;;;;;;;5.61;100.00;99628.19;5225202;28;20026;-77
2023/03/07 04:36:54;;;;;;;4.57;3.30;;;;;;;5.67;100.00;99635.47;5225869;28;20534;-77
2023/03/07 04:39:25;;;;;;;5.05;2.83;;;;;;;5.58;100.00;99626.66;5228143;28;20078;-77
2023/03/07 04:41:56;;;;;;;3.35;2.95;;;;;;;5.61;100.00;99633.38;5228645;28;20029;-77
2023/03/07 04:44:27;;;;;;;4.00;2.70;;;;;;;5.70;100.00;99630.00;5227252;28;20543;-77
2023/03/07 04:46:59;;;;;;;4.53;2.90;;;;;;;5.67;100.00;99617.25;5230394;28;20029;-77
2023/03/07 04:49:30;;;;;;;4.38;3.08;;;;;;;5.56;100.00;99617.34;5224070;28;20064;-77
2023/03/07 04:52:02;;;;;;;5.25;3.40;;;;;;;5.67;100.00;99629.44;5225391;28;20141;-76
2023/03/07 04:54:33;;;;;;;6.32;3.78;;;;;;;5.64;100.00;99614.91;5242714;28;20026;-76
2023/03/07 04:57:04;;;;;;;3.95;2.67;;;;;;;5.51;100.00;99603.94;5229789;28;20026;-75
2023/03/07 04:59:38;;;;;;;5.20;3.28;;;;;;;5.55;100.00;99619.13;5229237;28;20038;-77
2023/03/07 05:02:11;;;;;;;;;;;;;;;6.15;100.00;99618.47;5227515;28;20036;-77
2023/03/07 05:04:42;;;;;;;5.60;3.30;;;;;;;5.57;100.00;99621.59;5225605;28;19952;-76
2023/03/07 05:07:14;;;;;;;5.15;3.35;;;;;;;5.55;100.00;99618.31;5242282;28;20079;-76
2023/03/07 05:09:45;;;;;;;4.30;3.15;;;;;;;5.55;100.00;99616.53;5224145;28;20048;-76
2023/03/07 05:12:17;;;;;;;6.32;3.80;;;;;;;5.55;100.00;99613.94;5240468;28;20386;-76
2023/03/07 05:14:48;;;;;;;5.95;3.78;;;;;;;5.53;100.00;99608.06;5221363;28;20564;-76
2023/03/07 05:17:20;;;;;;;4.18;3.17;;;;;;;5.48;100.00;99607.59;5226913;28;20029;-76
2023/03/07 05:19:53;;;;;;;5.00;3.45;;;;;;;5.52;100.00;99606.38;5224744;28;20516;-76
2023/03/07 05:22:24;;;;;;;6.35;3.97;;;;;;;5.55;100.00;99602.72;5223414;28;20025;-76
2023/03/07 05:24:57;;;;;;;5.88;3.58;;;;;;;5.60;100.00;99603.97;5225349;28;20503;-76
2023/03/07 05:27:28;;;;;;;5.78;3.70;;;;;;;5.58;100.00;99598.09;5224442;28;20028;-76
2023/03/07 05:29:59;;;;;;;5.45;3.55;;;;;;;5.58;100.00;99589.47;5226262;28;20018;-76
2023/03/07 05:32:31;;;;;;;5.07;3.30;;;;;;;5.56;100.00;99592.19;5226250;28;20049;-76
2023/03/07 05:35:03;;;;;;;4.07;3.25;;;;;;;5.50;100.00;99574.53;5224832;28;20018;-76
2023/03/07 05:37:34;;;;;;;4.57;3.47;;;;;;;5.58;100.00;99584.28;5224847;28;20466;-75
2023/03/07 05:40:09;;;;;;;4.22;3.17;;;;;;;5.60;100.00;99572.78;5225073;28;20034;-76
2023/03/07 05:42:40;;;;;;;5.00;3.58;;;;;;;5.54;100.00;99572.50;5226867;28;20450;-76
2023/03/07 05:45:12;;;;;;;5.25;3.60;;;;;;;5.58;100.00;99584.28;5225322;28;20026;-76
2023/03/07 05:47:43;;;;;;;5.43;3.58;;;;;;;5.49;100.00;99582.44;5224774;28;20085;-76
2023/03/07 05:50:15;;;;;;;4.72;3.60;;;;;;;5.70;100.00;99592.81;5239047;28;20511;-76
2023/03/07 05:52:46;;;;;;;4.60;3.90;;;;;;;5.73;100.00;99587.34;5225136;28;21364;-76
2023/03/07 05:55:17;;;;;;;4.47;3.60;;;;;;;5.78;100.00;99580.00;5227054;28;20499;-76
2023/03/07 05:57:49;;;;;;;6.63;4.57;;;;;;;5.59;100.00;99563.34;5226758;28;20152;-76
2023/03/07 06:00:21;;;;;;;6.00;4.18;;;;;;;5.66;100.00;99570.63;5226937;28;20028;-76
2023/03/07 06:02:52;;;;;;;4.32;3.72;;;;;;;5.70;100.00;99578.03;5224796;28;20474;-76
2023/03/07 06:05:24;;;;;;;4.05;3.40;;;;;;;5.63;100.00;99574.31;5228531;28;20058;-75
2023/03/07 06:07:55;;;;;;;4.78;3.60;;;;;;;5.65;100.00;99582.00;5226801;28;20073;-75
2023/03/07 06:10:26;;;;;;;5.40;3.55;;;;;;;5.52;100.00;99577.81;5223665;28;20021;-76
2023/03/07 06:12:58;;;;;;;4.90;3.53;;;;;;;5.55;100.00;99584.53;5225400;28;20029;-76
2023/03/07 06:15:30;;;;;;;4.28;3.33;;;;;;;5.54;100.00;99580.28;5228330;28;20096;-77
2023/03/07 06:18:01;;;;;;;3.78;3.00;;;;;;;5.58;100.00;99577.31;5226671;28;20104;-76
2023/03/07 06:20:32;;;;;;;4.35;3.50;;;;;;;5.56;100.00;99583.56;5229090;28;20030;-76
2023/03/07 06:23:03;;;;;;;4.57;3.50;;;;;;;5.54;100.00;99575.91;5226603;28;20029;-75
2023/03/07 06:25:35;;;;;;;5.35;2.80;;;;;;;5.50;100.00;99584.91;5225866;28;20022;-76
2023/03/07 06:28:07;;;;;;;4.85;2.70;;;;;;;5.37;100.00;99581.69;5224289;28;20083;-76
2023/03/07 06:30:38;;;;;;;3.42;2.45;;;;;;;5.32;100.00;99591.66;5224631;28;20041;-76
2023/03/07 06:33:09;;;;;;;3.75;2.38;;;;;;;5.10;100.00;99600.38;5223336;28;20079;-76
2023/03/07 06:35:42;;;;;;;4.28;2.40;;;;;;;5.05;100.00;99613.72;5226064;28;20051;-76
2023/03/07 06:38:15;;;;;;;3.08;2.20;;;;;;;5.03;100.00;99591.44;5223407;28;20056;-75
2023/03/07 06:40:54;;;;;;;3.15;2.47;;;;;;;4.98;100.00;99586.63;5225012;28;20071;-75
2023/03/07 06:43:25;;;;;;;2.60;1.85;;;;;;;4.88;100.00;99591.72;5227425;28;20182;-76
2023/03/07 06:45:56;;;;;;;3.42;2.90;;;;;;;4.82;100.00;99591.44;5227951;28;20132;-76
2023/03/07 06:48:28;;;;;;;5.53;3.10;;;;;;;4.84;100.00;99586.91;5222361;28;20034;-76
2023/03/07 06:51:05;;;;;;;4.70;3.50;;;;;;;4.84;100.00;99576.53;5224697;28;20033;-75
2023/03/07 06:53:37;;;;;;;5.18;3.60;;;;;;;4.81;100.00;99592.34;5224201;28;20558;-75
2023/03/07 06:56:08;;;;;;;4.30;3.58;;;;;;;4.83;100.00;99599.06;5226368;28;20104;-76
2023/03/07 06:58:39;;;;;;;4.82;3.33;;;;;;;4.76;100.00;99605.69;5224309;28;20037;-76
2023/03/07 07:01:16;;;;;;;5.22;3.40;;;;;;;4.77;100.00;99599.59;5225597;28;20107;-76
2023/03/07 07:03:48;;;;;;;3.88;3.47;;;;;;;4.63;100.00;99605.88;5226117;28;20018;-76
2023/03/07 07:06:19;;;;;;;5.03;3.40;;;;;;;4.58;100.00;99607.16;5225444;28;20549;-76
2023/03/07 07:08:55;;;;;;;4.15;3.58;;;;;;;4.59;100.00;99599.28;5222155;28;20034;-76
2023/03/07 07:11:27;;;;;;;4.15;3.58;;;;;;;4.51;100.00;99606.84;5225613;28;20129;-76
2023/03/07 07:13:58;;;;;;;5.13;3.28;;;;;;;4.42;100.00;99604.16;5227363;28;20064;-76
2023/03/07 07:16:32;;;;;;;4.45;3.38;;;;;;;4.39;100.00;99605.22;5225709;28;20116;-76
2023/03/07 07:19:03;;;;;;;4.07;3.30;;;;;;;4.22;100.00;99608.31;5226206;28;20136;-76
2023/03/07 07:21:35;;;;;;;4.70;3.58;;;;;;;4.21;100.00;99591.94;5239700;28;20049;-75
2023/03/07 07:24:08;;;;;;;4.22;3.55;;;;;;;4.22;100.00;99596.19;5226760;28;20022;-75
2023/03/07 07:26:40;;;;;;;4.22;3.83;;;;;;;4.12;100.00;99598.66;5225005;28;20033;-76
2023/03/07 07:29:11;;;;;;;5.22;3.80;;;;;;;4.10;100.00;99597.97;5228227;28;20025;-76
2023/03/07 07:31:42;;;;;;;4.53;3.40;;;;;;;4.10;100.00;99604.91;5223075;28;20140;-76
2023/03/07 07:34:15;;;;;;;6.68;4.65;;;;;;;4.08;100.00;99617.16;5226612;28;20050;-76
2023/03/07 07:36:46;;;;;;;6.30;4.25;;;;;;;4.00;100.00;99635.06;5224576;28;20101;-75
2023/03/07 07:39:18;;;;;;;5.43;3.78;;;;;;;4.02;100.00;99644.38;5225701;28;20036;-76
2023/03/07 07:41:50;;;;;;;4.80;4.03;;;;;;;3.88;100.00;99637.66;5222883;28;20026;-75
2023/03/07 07:44:21;;;;;;;5.07;4.22;;;;;;;3.90;100.00;99638.38;5223045;28;20036;-75
2023/03/07 07:46:52;;;;;;;6.10;4.28;;;;;;;3.84;100.00;99651.78;5220162;28;20084;-76
2023/03/07 07:49:24;;;;;;;9.02;5.13;;;;;;;3.78;100.00;99647.06;5225414;28;20049;-76
2023/03/07 07:51:55;;;;;;;5.47;4.55;;;;;;;3.72;100.00;99646.72;5224500;28;20041;-76
2023/03/07 07:54:27;;;;;;;7.07;4.65;;;;;;;3.65;100.00;99652.34;5239806;28;20430;-76
2023/03/07 07:56:58;;;;;;;7.35;4.97;;;;;;;3.73;100.00;99650.94;5222769;28;20029;-75
2023/03/07 07:59:32;;;;;;;6.75;5.35;;;;;;;3.77;100.00;99645.41;5224190;28;20025;-75
2023/03/07 08:02:04;;;;;;;8.55;5.28;;;;;;;3.72;100.00;99646.72;5222840;28;20106;-76
2023/03/07 08:04:35;;;;;;;5.93;4.80;;;;;;;3.80;100.00;99641.78;5239773;28;20383;-75
2023/03/07 08:07:06;;;;;;;6.78;4.93;;;;;;;3.84;100.00;99653.56;5223796;28;20018;-76
2023/03/07 08:09:38;;;;;;;5.75;4.53;;;;;;;3.82;100.00;99652.84;5224690;28;20034;-75
2023/03/07 08:12:11;;;;;;;5.57;4.78;;;;;;;3.88;100.00;99657.56;5222842;28;20022;-76
2023/03/07 08:14:42;;;;;;;5.20;4.70;;;;;;;3.90;100.00;99660.84;5218510;28;20034;-76
2023/03/07 08:17:14;;;;;;;7.80;4.45;;;;;;;3.86;100.00;99662.03;5224219;28;20038;-76
2023/03/07 08:19:45;;;;;;;5.93;4.78;;;;;;;3.97;100.00;99675.00;5227179;28;20056;-76
2023/03/07 08:22:18;;;;;;;6.75;4.32;;;;;;;3.93;100.00;99670.97;5222741;28;20147;-76
2023/03/07 08:24:50;;;;;;;5.30;4.60;;;;;;;3.95;100.00;99671.72;5224327;28;20026;-76
2023/03/07 08:27:21;;;;;;;6.78;4.93;;;;;;;3.93;100.00;99681.34;5225329;28;20124;-76
2023/03/07 08:29:52;;;;;;;5.68;4.90;;;;;;;3.93;100.00;99667.56;5219813;28;20044;-76
2023/03/07 08:32:24;;;;;;;5.40;4.72;;;;;;;3.98;100.00;99673.22;5221796;28;20034;-75
2023/03/07 08:34:55;;;;;;;5.00;4.40;;;;;;;3.88;100.00;99676.53;5223769;28;20029;-76
2023/03/07 08:37:26;;;;;;;5.38;4.28;;;;;;;4.01;100.00;99681.59;5221862;28;20028;-76
2023/03/07 08:39:58;;;;;;;4.78;4.18;;;;;;;4.04;100.00;99686.53;5223885;28;20141;-76
2023/03/07 08:42:29;;;;;;;5.47;4.03;;;;;;;4.02;100.00;99672.88;5223981;28;20025;-76
2023/03/07 08:45:00;;;;;;;4.93;4.22;;;;;;;4.07;100.00;99681.13;5223259;28;20026;-76
2023/03/07 08:47:32;;;;;;;5.32;4.35;;;;;;;4.00;100.00;99681.72;5220149;28;20049;-76
2023/03/07 08:50:04;;;;;;;5.50;4.30;;;;;;;3.97;100.00;99677.56;5223176;28;20025;-76
2023/03/07 08:52:35;;;;;;;5.22;4.70;;;;;;;3.96;100.00;99678.53;5225315;28;20496;-76
2023/03/07 08:55:07;;;;;;;5.05;4.47;;;;;;;3.99;100.00;99682.66;5225256;28;20851;-76
2023/03/07 08:57:38;;;;;;;5.13;4.57;;;;;;;3.99;100.00;99680.06;5225370;28;20021;-76
2023/03/07 09:00:11;;;;;;;5.30;4.72;;;;;;;3.96;100.00;99669.94;5225162;28;20041;-76
2023/03/07 09:02:42;;;;;;;6.20;5.07;;;;;;;3.84;100.00;99666.50;5223519;28;20025;-77
2023/03/07 09:05:14;;;;;;;6.53;5.50;;;;;;;3.93;100.00;99675.34;5224644;28;20022;-76
2023/03/07 09:07:45;;;;;;;6.03;5.43;;;;;;;3.94;100.00;99664.88;5226394;28;20060;-76
2023/03/07 09:10:19;;;;;;;7.43;5.65;;;;;;;4.03;100.00;99677.13;5220060;28;20037;-76
2023/03/07 09:12:50;;;;;;;7.07;6.38;;;;;;;4.05;100.00;99674.41;5224187;28;20033;-77
2023/03/07 09:15:22;;;;;;;8.75;6.47;;;;;;;4.11;100.00;99689.50;5224249;28;20471;-76
2023/03/07 09:17:53;;;;;;;7.85;6.63;;;;;;;4.12;100.00;99676.41;5222796;28;20013;-77
2023/03/07 09:20:24;;;;;;;7.75;6.95;;;;;;;4.21;100.00;99690.44;5226190;28;20076;-76
2023/03/07 09:22:55;;;;;;;9.73;8.05;;;;;;;4.18;100.00;99689.84;5227040;28;20101;-76
2023/03/07 09:25:27;;;;;;;8.68;7.75;;;;;;;4.06;100.00;99676.91;5230176;28;20061;-76
2023/03/07 09:27:59;;;;;;;8.55;7.43;;;;;;;4.15;100.00;99696.91;5224259;28;20152;-77
2023/03/07 09:30:30;;;;;;;8.43;7.55;;;;;;;4.11;100.00;99695.50;5226931;28;20091;-76
2023/03/07 09:33:02;;;;;;;9.82;8.45;;;;;;;4.12;100.00;99701.50;5241415;28;20091;-78
2023/03/07 09:35:34;;;;;;;9.18;8.25;;;;;;;4.06;100.00;99702.81;5227862;28;20030;-76
2023/03/07 09:38:05;;;;;;;9.63;8.73;;;;;;;4.20;100.00;99706.09;5225074;28;20120;-76
2023/03/07 09:40:38;;;;;;;9.48;8.57;;;;;;;4.23;100.00;99698.91;5227629;28;20034;-76
2023/03/07 09:43:15;;;;;;;8.95;8.15;;;;;;;4.42;100.00;99698.31;5225941;28;20541;-76
2023/03/07 09:45:58;;;;;;;9.50;8.60;;;;;;;4.50;100.00;99703.75;5224442;28;20040;-76
2023/03/07 09:48:50;;;;;;;9.15;8.25;;;;;;;4.43;100.00;99689.59;5226909;28;20124;-77
2023/03/07 09:51:30;;;;;;;8.80;7.68;;;;;;;4.48;100.00;99702.22;5230384;28;20033;-76
2023/03/07 09:54:10;;;;;;;8.88;7.97;;;;;;;4.49;100.00;99701.28;5227009;28;20021;-76
2023/03/07 09:56:57;;;;;;;8.45;7.65;;;;;;;4.63;100.00;99701.84;5225304;28;20083;-76
2023/03/07 09:59:47;;;;;;;9.05;8.15;;;;;;;4.71;100.00;99701.25;5222521;28;20060;-76
2023/03/07 10:02:32;;;;;;;8.60;7.80;;;;;;;4.55;100.00;99701.63;5229399;28;20034;-76
2023/03/07 10:05:21;;;;;;;8.73;7.85;;;;;;;4.69;100.00;99703.13;5224944;28;20471;-76
2023/03/07 10:07:53;;;;;;;9.48;8.57;;;;;;;4.64;100.00;99703.50;5225642;28;20477;-76
2023/03/07 10:10:38;;;;;;;9.27;8.38;;;;;;;4.87;100.00;99693.91;5227842;28;20421;-76
2023/03/07 10:13:18;;;;;;;10.98;9.00;;;;;;;4.87;100.00;99698.25;5225886;28;20033;-76
2023/03/07 10:16:23;;;;;;;8.55;7.75;;;;;;;5.02;100.00;99699.63;5226368;28;20083;-76
2023/03/07 10:19:42;;;;;;;8.23;7.40;;;;;;;5.04;100.00;99696.94;5215427;28;20033;-76
2023/03/07 10:22:28;;;;;;;7.97;6.78;;;;;;;4.94;100.00;99698.59;5219986;28;20041;-77
2023/03/07 10:25:06;;;;;;;7.20;6.50;;;;;;;4.84;100.00;99701.09;5227322;28;20080;-76
2023/03/07 10:27:37;;;;;;;6.28;5.68;;;;;;;4.60;100.00;99694.31;5227157;28;20083;-77
2023/03/07 10:30:19;;;;;;;6.07;5.47;;;;;;;4.81;100.00;99697.00;5225695;28;20026;-76
2023/03/07 10:32:54;;;;;;;5.78;5.28;;;;;;;4.69;100.00;99697.13;5223085;28;20114;-76
2023/03/07 10:35:50;;;;;;;5.00;4.50;;;;;;;4.96;100.00;99691.50;5226770;28;20141;-76
2023/03/07 10:38:33;;;;;;;5.57;5.07;;;;;;;4.72;100.00;99683.91;5226592;28;20301;-76
2023/03/07 10:41:19;;;;;;;5.55;5.05;;;;;;;4.81;100.00;99698.75;5226786;28;20018;-78
2023/03/07 10:43:52;;;;;;;5.53;5.03;;;;;;;4.72;100.00;99694.28;5225458;28;20171;-76
2023/03/07 10:46:27;;;;;;;5.43;4.93;;;;;;;4.83;100.00;99695.09;5220102;28;20125;-77
2023/03/07 10:49:13;;;;;;;4.97;4.47;;;;;;;4.88;100.00;99687.75;5221769;28;20490;-77
2023/03/07 10:51:59;;;;;;;5.03;4.53;;;;;;;4.87;100.00;99682.69;5227877;28;20553;-77
2023/03/07 10:54:36;;;;;;;4.95;4.45;;;;;;;4.85;100.00;99702.78;5223732;28;20072;-78
2023/03/07 10:57:07;;;;;;;4.72;4.22;;;;;;;4.84;100.00;99698.50;5227800;28;20040;-76
2023/03/07 10:59:47;;;;;;;4.75;4.25;;;;;;;4.93;100.00;99696.97;5224604;28;20455;-76
2023/03/07 11:02:29;;;;;;;4.80;4.32;;;;;;;5.05;100.00;99702.00;5229259;28;20112;-76
2023/03/07 11:05:16;;;;;;;4.60;4.20;;;;;;;4.87;100.00;99700.84;5223219;28;20754;-76
2023/03/07 11:07:48;;;;;;;4.38;3.80;;;;;;;4.98;100.00;99700.81;5224975;28;20072;-76
2023/03/07 11:10:35;;;;;;;4.68;4.20;;;;;;;5.04;100.00;99699.53;5227636;28;20025;-77
2023/03/07 11:13:13;;;;;;;4.40;4.00;;;;;;;5.11;100.00;99703.25;5223067;28;20083;-76
2023/03/07 11:15:45;;;;;;;4.47;4.07;;;;;;;5.02;100.00;99689.25;5220350;28;20026;-76
2023/03/07 11:18:36;;;;;;;4.40;3.97;;;;;;;5.28;100.00;99700.13;5228747;28;20090;-76
2023/03/07 11:21:30;;;;;;;3.72;3.40;;;;;;;5.36;100.00;99684.75;5222736;28;20037;-76
2023/03/07 11:24:04;;;;;;;4.30;3.90;;;;;;;5.23;100.00;99693.69;5227201;28;20029;-76
2023/03/07 11:26:39;;;;;;;4.35;3.95;;;;;;;5.27;100.00;99679.50;5228096;28;20144;-76
2023/03/07 11:29:13;;;;;;;4.30;3.90;;;;;;;5.37;100.00;99695.97;5225080;28;20041;-76
2023/03/07 11:31:54;;;;;;;4.25;3.78;;;;;;;5.59;100.00;99697.63;5224456;28;20030;-76
2023/03/07 11:34:58;;;;;;;4.32;3.92;;;;;;;5.69;100.00;99697.72;5221750;28;20022;-76
2023/03/07 11:37:44;;;;;;;3.83;3.42;;;;;;;5.63;100.00;99698.22;5226532;28;20076;-78
2023/03/07 11:40:26;;;;;;;4.55;4.15;;;;;;;5.57;100.00;99697.78;5225400;28;20108;-77
2023/03/07 11:43:16;;;;;;;4.00;3.60;;;;;;;5.81;100.00;99692.31;5227269;28;20475;-77
2023/03/07 11:45:58;;;;;;;3.85;3.42;;;;;;;5.62;100.00;99689.59;5222169;28;20539;-76
2023/03/07 11:48:54;;;;;;;3.97;3.58;;;;;;;5.95;100.00;99692.97;5225827;28;20033;-76
2023/03/07 11:51:44;;;;;;;3.85;3.45;;;;;;;5.61;100.00;99688.78;5222339;28;20463;-76
2023/03/07 11:54:39;;;;;;;3.95;3.55;;;;;;;5.83;100.00;99677.41;5238941;28;20029;-77
2023/03/07 11:57:20;;;;;;;4.07;3.67;;;;;;;5.78;100.00;99692.56;5217681;28;20055;-76
2023/03/07 12:00:17;;;;;;;3.95;3.50;;;;;;;5.88;100.00;99684.81;5237346;28;20026;-78
2023/03/07 12:03:23;;;;;;;4.22;3.83;;;;;;;5.85;100.00;99687.69;5201456;28;20411;-76
2023/03/07 12:06:23;;;;;;;4.70;4.20;;;;;;;5.84;100.00;99686.03;5235001;28;20022;-77
2023/03/07 12:09:00;;;;;;;4.38;3.97;;;;;;;5.64;100.00;99687.69;5224768;28;20493;-76